SAS4010 ENZV-ENGM
Flight info
| Callsign | SAS4010 |
|---|---|
| Flight time | 0h 33m |
| Altitude | 29000 |
| Route | UPLEV DCT OSKOM DCT RIPAM |
| Aircraft | A319/M-SDE3FGHIRWY/LB1 |
Departure
| Time | 2026-05-06 17:20 |
|---|---|
| Airport | Stavanger Airport, Sola (ENZV) |
Arrival
| Time | 2026-05-06 17:53 |
|---|---|
| Airport | Oslo-Gardermoen International Airport (ENGM) |
| Time | Latitude | Longitude | Altitude | Speed | Heading |
|---|---|---|---|---|---|
| 2026-05-06 17:02 | 58.88197 | 5.63101 | 26 ft | 0 kts | 283° |
| 2026-05-06 17:10 | 58.88196 | 5.63106 | 26 ft | 1 kts | 283° |
| 2026-05-06 17:11 | 58.88192 | 5.63140 | 30 ft | 3 kts | 282° |
| 2026-05-06 17:11 | 58.88188 | 5.63178 | 30 ft | 3 kts | 275° |
| 2026-05-06 17:11 | 58.88188 | 5.63217 | 27 ft | 3 kts | 261° |
| 2026-05-06 17:11 | 58.88189 | 5.63234 | 28 ft | 0 kts | 253° |
| 2026-05-06 17:14 | 58.88188 | 5.63229 | 28 ft | 2 kts | 245° |
| 2026-05-06 17:14 | 58.88155 | 5.63234 | 28 ft | 7 kts | 166° |
| 2026-05-06 17:14 | 58.88098 | 5.63231 | 28 ft | 10 kts | 213° |
| 2026-05-06 17:14 | 58.88029 | 5.63235 | 29 ft | 11 kts | 136° |
| 2026-05-06 17:15 | 58.87978 | 5.63363 | 31 ft | 12 kts | 133° |
| 2026-05-06 17:15 | 58.87902 | 5.63347 | 32 ft | 12 kts | 193° |
| 2026-05-06 17:15 | 58.87820 | 5.63283 | 31 ft | 14 kts | 195° |
| 2026-05-06 17:15 | 58.87719 | 5.63277 | 31 ft | 15 kts | 174° |
| 2026-05-06 17:16 | 58.87607 | 5.63300 | 31 ft | 17 kts | 175° |
| 2026-05-06 17:16 | 58.87486 | 5.63305 | 31 ft | 19 kts | 180° |
| 2026-05-06 17:16 | 58.87354 | 5.63303 | 32 ft | 20 kts | 179° |
| 2026-05-06 17:16 | 58.87211 | 5.63307 | 32 ft | 21 kts | 179° |
| 2026-05-06 17:17 | 58.87061 | 5.63317 | 33 ft | 21 kts | 171° |
| 2026-05-06 17:17 | 58.86962 | 5.63438 | 32 ft | 11 kts | 128° |
| 2026-05-06 17:17 | 58.86949 | 5.63574 | 35 ft | 10 kts | 89° |
| 2026-05-06 17:17 | 58.86949 | 5.63609 | 36 ft | 0 kts | 88° |
| 2026-05-06 17:18 | 58.86950 | 5.63630 | 36 ft | 4 kts | 88° |
| 2026-05-06 17:18 | 58.86951 | 5.63739 | 37 ft | 12 kts | 89° |
| 2026-05-06 17:18 | 58.86987 | 5.63804 | 36 ft | 0 kts | 359° |
| 2026-05-06 17:19 | 58.86988 | 5.63804 | 36 ft | 2 kts | 359° |
| 2026-05-06 17:19 | 58.87190 | 5.63797 | 35 ft | 61 kts | 359° |
| 2026-05-06 17:19 | 58.87818 | 5.63777 | 33 ft | 119 kts | 359° |
| 2026-05-06 17:20 | 58.88782 | 5.63748 | 314 ft | 140 kts | 356° |
| 2026-05-06 17:20 | 58.89744 | 5.63725 | 1067 ft | 141 kts | 356° |
| 2026-05-06 17:20 | 58.90744 | 5.63699 | 1684 ft | 146 kts | 356° |
| 2026-05-06 17:20 | 58.91774 | 5.63666 | 2335 ft | 149 kts | 356° |
| 2026-05-06 17:21 | 58.92831 | 5.63626 | 2857 ft | 161 kts | 357° |
| 2026-05-06 17:21 | 58.93999 | 5.63578 | 3421 ft | 173 kts | 357° |
| 2026-05-06 17:21 | 58.95276 | 5.63537 | 3797 ft | 197 kts | 358° |
| 2026-05-06 17:21 | 58.96734 | 5.63496 | 4320 ft | 222 kts | 358° |
| 2026-05-06 17:22 | 58.98329 | 5.64093 | 4916 ft | 249 kts | 26° |
| 2026-05-06 17:22 | 58.99598 | 5.66467 | 5860 ft | 265 kts | 59° |
| 2026-05-06 17:22 | 59.00131 | 5.69957 | 6870 ft | 275 kts | 77° |
| 2026-05-06 17:22 | 59.00484 | 5.73639 | 7872 ft | 280 kts | 78° |
| 2026-05-06 17:23 | 59.00813 | 5.77415 | 8829 ft | 287 kts | 78° |
| 2026-05-06 17:23 | 59.01141 | 5.81274 | 9740 ft | 293 kts | 78° |
| 2026-05-06 17:23 | 59.01475 | 5.85184 | 10414 ft | 307 kts | 78° |
| 2026-05-06 17:23 | 59.01844 | 5.89420 | 10743 ft | 331 kts | 78° |
| 2026-05-06 17:24 | 59.02248 | 5.93977 | 11087 ft | 352 kts | 78° |
| 2026-05-06 17:24 | 59.02669 | 5.98712 | 11740 ft | 361 kts | 78° |
| 2026-05-06 17:24 | 59.03101 | 6.03560 | 12430 ft | 367 kts | 78° |
| 2026-05-06 17:24 | 59.03541 | 6.08493 | 13161 ft | 374 kts | 78° |
| 2026-05-06 17:25 | 59.04120 | 6.13437 | 13863 ft | 378 kts | 68° |
| 2026-05-06 17:25 | 59.05209 | 6.18105 | 14457 ft | 383 kts | 61° |
| 2026-05-06 17:25 | 59.06376 | 6.22828 | 15066 ft | 390 kts | 61° |
| 2026-05-06 17:25 | 59.07547 | 6.27541 | 15624 ft | 396 kts | 61° |
| 2026-05-06 17:26 | 59.08757 | 6.32405 | 16227 ft | 403 kts | 60° |
| 2026-05-06 17:26 | 59.09982 | 6.37348 | 16806 ft | 410 kts | 60° |
| 2026-05-06 17:26 | 59.11226 | 6.42392 | 17401 ft | 416 kts | 60° |
| 2026-05-06 17:26 | 59.12480 | 6.47509 | 17970 ft | 423 kts | 61° |
| 2026-05-06 17:27 | 59.13754 | 6.52735 | 18512 ft | 430 kts | 61° |
| 2026-05-06 17:27 | 59.15037 | 6.58018 | 19074 ft | 434 kts | 61° |
| 2026-05-06 17:27 | 59.16334 | 6.63374 | 19651 ft | 438 kts | 61° |
| 2026-05-06 17:27 | 59.17618 | 6.68690 | 20254 ft | 442 kts | 61° |
| 2026-05-06 17:28 | 59.18933 | 6.74139 | 20847 ft | 446 kts | 61° |
| 2026-05-06 17:28 | 59.20254 | 6.79618 | 21409 ft | 450 kts | 61° |
| 2026-05-06 17:28 | 59.21595 | 6.85176 | 21971 ft | 453 kts | 61° |
| 2026-05-06 17:28 | 59.22941 | 6.90771 | 22488 ft | 457 kts | 61° |
| 2026-05-06 17:29 | 59.24296 | 6.96420 | 23002 ft | 461 kts | 62° |
| 2026-05-06 17:29 | 59.25655 | 7.02107 | 23498 ft | 465 kts | 62° |
| 2026-05-06 17:29 | 59.27028 | 7.07872 | 23913 ft | 469 kts | 62° |
| 2026-05-06 17:29 | 59.28402 | 7.13659 | 24332 ft | 472 kts | 62° |
| 2026-05-06 17:30 | 59.29771 | 7.19443 | 24704 ft | 476 kts | 62° |
| 2026-05-06 17:30 | 59.31159 | 7.25333 | 25091 ft | 479 kts | 62° |
| 2026-05-06 17:30 | 59.32562 | 7.31295 | 25500 ft | 483 kts | 62° |
| 2026-05-06 17:30 | 59.33968 | 7.37291 | 25901 ft | 487 kts | 62° |
| 2026-05-06 17:31 | 59.35388 | 7.43362 | 26327 ft | 491 kts | 63° |
| 2026-05-06 17:31 | 59.36813 | 7.49468 | 26728 ft | 494 kts | 63° |
| 2026-05-06 17:31 | 59.38242 | 7.55603 | 27104 ft | 498 kts | 63° |
| 2026-05-06 17:31 | 59.39687 | 7.61833 | 27488 ft | 501 kts | 63° |
| 2026-05-06 17:32 | 59.41125 | 7.68052 | 27883 ft | 505 kts | 63° |
| 2026-05-06 17:32 | 59.42581 | 7.74364 | 28230 ft | 509 kts | 63° |
| 2026-05-06 17:32 | 59.44048 | 7.80733 | 28591 ft | 512 kts | 63° |
| 2026-05-06 17:32 | 59.45516 | 7.87118 | 28920 ft | 515 kts | 63° |
| 2026-05-06 17:33 | 59.46966 | 7.93443 | 28998 ft | 510 kts | 64° |
| 2026-05-06 17:33 | 59.49845 | 8.06093 | 28988 ft | 505 kts | 64° |
| 2026-05-06 17:34 | 59.52704 | 8.18744 | 28992 ft | 506 kts | 64° |
| 2026-05-06 17:34 | 59.55555 | 8.31409 | 28981 ft | 506 kts | 64° |
| 2026-05-06 17:35 | 59.58003 | 8.41937 | 28974 ft | 507 kts | 57° |
| 2026-05-06 17:35 | 59.62532 | 8.55289 | 28983 ft | 503 kts | 52° |
| 2026-05-06 17:36 | 59.68434 | 8.72429 | 28978 ft | 504 kts | 52° |
| 2026-05-06 17:36 | 59.71719 | 8.82003 | 28972 ft | 509 kts | 52° |
| 2026-05-06 17:37 | 59.73698 | 8.87805 | 28563 ft | 504 kts | 52° |
| 2026-05-06 17:37 | 59.75651 | 8.93566 | 27787 ft | 504 kts | 52° |
| 2026-05-06 17:37 | 59.77600 | 8.99330 | 26969 ft | 504 kts | 52° |
| 2026-05-06 17:37 | 59.79545 | 9.05086 | 26297 ft | 500 kts | 52° |
| 2026-05-06 17:38 | 59.81472 | 9.10789 | 25704 ft | 495 kts | 52° |
| 2026-05-06 17:38 | 59.83381 | 9.16445 | 25139 ft | 490 kts | 52° |
| 2026-05-06 17:38 | 59.85272 | 9.22060 | 24455 ft | 484 kts | 51° |
| 2026-05-06 17:38 | 59.87128 | 9.27587 | 23734 ft | 478 kts | 51° |
| 2026-05-06 17:39 | 59.88935 | 9.32984 | 22963 ft | 471 kts | 52° |
| 2026-05-06 17:39 | 59.90734 | 9.38372 | 22174 ft | 465 kts | 52° |
| 2026-05-06 17:39 | 59.92512 | 9.43714 | 21452 ft | 458 kts | 52° |
| 2026-05-06 17:39 | 59.94259 | 9.48977 | 20745 ft | 452 kts | 52° |
| 2026-05-06 17:40 | 59.95976 | 9.54150 | 20089 ft | 445 kts | 52° |
| 2026-05-06 17:40 | 59.97103 | 9.57536 | 19659 ft | 441 kts | 52° |
| 2026-05-06 17:40 | 59.97234 | 9.57931 | 19610 ft | 441 kts | 52° |
| 2026-05-06 17:40 | 59.98685 | 9.62336 | 19052 ft | 435 kts | 53° |
| 2026-05-06 17:41 | 60.00339 | 9.67360 | 18439 ft | 429 kts | 53° |
| 2026-05-06 17:41 | 60.01944 | 9.72230 | 17722 ft | 423 kts | 53° |
| 2026-05-06 17:41 | 60.03548 | 9.77107 | 17047 ft | 416 kts | 53° |
| 2026-05-06 17:41 | 60.05119 | 9.81890 | 16355 ft | 409 kts | 54° |
| 2026-05-06 17:42 | 60.06670 | 9.86616 | 15679 ft | 402 kts | 54° |
| 2026-05-06 17:42 | 60.08188 | 9.91249 | 15011 ft | 395 kts | 54° |
| 2026-05-06 17:42 | 60.09678 | 9.95819 | 14348 ft | 388 kts | 54° |
| 2026-05-06 17:42 | 60.11136 | 10.00305 | 13695 ft | 382 kts | 55° |
| 2026-05-06 17:43 | 60.12576 | 10.04743 | 12976 ft | 375 kts | 55° |
| 2026-05-06 17:43 | 60.13984 | 10.09086 | 12276 ft | 370 kts | 56° |
| 2026-05-06 17:43 | 60.15377 | 10.13392 | 11731 ft | 364 kts | 56° |
| 2026-05-06 17:43 | 60.16745 | 10.17636 | 11160 ft | 359 kts | 56° |
| 2026-05-06 17:44 | 60.18071 | 10.21758 | 10631 ft | 355 kts | 56° |
| 2026-05-06 17:44 | 60.19391 | 10.25867 | 10360 ft | 343 kts | 57° |
| 2026-05-06 17:44 | 60.20656 | 10.29810 | 10241 ft | 328 kts | 57° |
| 2026-05-06 17:44 | 60.21865 | 10.33584 | 10092 ft | 315 kts | 57° |
| 2026-05-06 17:45 | 60.23031 | 10.37226 | 9982 ft | 304 kts | 57° |
| 2026-05-06 17:45 | 60.24159 | 10.40751 | 9800 ft | 296 kts | 57° |
| 2026-05-06 17:45 | 60.25268 | 10.44222 | 9492 ft | 293 kts | 57° |
| 2026-05-06 17:45 | 60.26362 | 10.47656 | 9154 ft | 291 kts | 57° |
| 2026-05-06 17:46 | 60.27300 | 10.50606 | 8876 ft | 290 kts | 57° |
| 2026-05-06 17:46 | 60.28393 | 10.54046 | 8529 ft | 288 kts | 57° |
| 2026-05-06 17:46 | 60.29469 | 10.57440 | 8199 ft | 287 kts | 57° |
| 2026-05-06 17:46 | 60.30537 | 10.60817 | 7846 ft | 285 kts | 57° |
| 2026-05-06 17:47 | 60.31599 | 10.64173 | 7537 ft | 283 kts | 57° |
| 2026-05-06 17:47 | 60.32657 | 10.67520 | 7233 ft | 281 kts | 56° |
| 2026-05-06 17:47 | 60.33705 | 10.70843 | 6885 ft | 280 kts | 56° |
| 2026-05-06 17:47 | 60.34746 | 10.74149 | 6566 ft | 278 kts | 56° |
| 2026-05-06 17:48 | 60.35777 | 10.77432 | 6271 ft | 276 kts | 56° |
| 2026-05-06 17:48 | 60.36800 | 10.80695 | 5915 ft | 275 kts | 56° |
| 2026-05-06 17:48 | 60.37815 | 10.83976 | 5581 ft | 275 kts | 59° |
| 2026-05-06 17:48 | 60.38441 | 10.87410 | 5320 ft | 272 kts | 78° |
| 2026-05-06 17:49 | 60.38515 | 10.91139 | 5063 ft | 269 kts | 96° |
| 2026-05-06 17:49 | 60.38259 | 10.94871 | 4798 ft | 266 kts | 104° |
| 2026-05-06 17:49 | 60.37653 | 10.98349 | 4530 ft | 261 kts | 117° |
| 2026-05-06 17:49 | 60.36703 | 11.01422 | 4262 ft | 256 kts | 129° |
| 2026-05-06 17:50 | 60.35480 | 11.03967 | 3996 ft | 251 kts | 142° |
| 2026-05-06 17:50 | 60.34142 | 11.06206 | 3727 ft | 248 kts | 142° |
| 2026-05-06 17:50 | 60.32833 | 11.08404 | 3437 ft | 242 kts | 142° |
| 2026-05-06 17:50 | 60.31564 | 11.10525 | 3100 ft | 230 kts | 143° |
| 2026-05-06 17:51 | 60.30243 | 11.12039 | 2769 ft | 216 kts | 161° |
| 2026-05-06 17:51 | 60.28822 | 11.12673 | 2486 ft | 204 kts | 179° |
| 2026-05-06 17:51 | 60.27469 | 11.12511 | 2213 ft | 188 kts | 193° |
| 2026-05-06 17:51 | 60.26264 | 11.11849 | 1916 ft | 172 kts | 199° |
| 2026-05-06 17:52 | 60.25187 | 11.11229 | 1607 ft | 152 kts | 199° |
| 2026-05-06 17:52 | 60.24194 | 11.10649 | 1355 ft | 147 kts | 198° |
| 2026-05-06 17:52 | 60.23216 | 11.10093 | 1094 ft | 145 kts | 199° |
| 2026-05-06 17:52 | 60.22275 | 11.09543 | 887 ft | 142 kts | 199° |
| 2026-05-06 17:53 | 60.21340 | 11.09012 | 696 ft | 136 kts | 199° |
| 2026-05-06 17:53 | 60.20536 | 11.08533 | 679 ft | 103 kts | 195° |
| 2026-05-06 17:53 | 60.20076 | 11.08306 | 673 ft | 39 kts | 184° |
| 2026-05-06 17:53 | 60.19903 | 11.08388 | 673 ft | 10 kts | 120° |
| 2026-05-06 17:54 | 60.19882 | 11.08523 | 673 ft | 9 kts | 105° |
| 2026-05-06 17:54 | 60.19866 | 11.08637 | 674 ft | 8 kts | 106° |
| 2026-05-06 17:54 | 60.19843 | 11.08794 | 677 ft | 16 kts | 107° |
| 2026-05-06 17:54 | 60.19808 | 11.09026 | 676 ft | 18 kts | 107° |
| 2026-05-06 17:55 | 60.19774 | 11.09265 | 682 ft | 18 kts | 104° |
| 2026-05-06 17:55 | 60.19741 | 11.09519 | 682 ft | 20 kts | 105° |
| 2026-05-06 17:55 | 60.19698 | 11.09785 | 682 ft | 20 kts | 109° |
| 2026-05-06 17:55 | 60.19674 | 11.09944 | 680 ft | 8 kts | 106° |
| 2026-05-06 17:56 | 60.19669 | 11.09981 | 682 ft | 1 kts | 106° |
| 2026-05-06 17:56 | 60.19668 | 11.09986 | 682 ft | 0 kts | 106° |